createdAt,value
2023-04-26T00:00:45.390Z,17.00
2023-04-26T00:01:45.362Z,18.20
2023-04-26T00:02:45.399Z,17.30
2023-04-26T00:03:45.566Z,17.00
2023-04-26T00:04:45.520Z,17.00
2023-04-26T00:05:45.406Z,17.20
2023-04-26T00:06:45.342Z,16.80
2023-04-26T00:07:45.285Z,17.40
2023-04-26T00:08:45.276Z,17.10
2023-04-26T00:09:45.266Z,17.40
2023-04-26T00:10:45.256Z,16.50
2023-04-26T00:11:45.234Z,17.70
2023-04-26T00:12:45.254Z,17.80
2023-04-26T00:13:45.226Z,16.90
2023-04-26T00:14:45.195Z,17.70
2023-04-26T00:15:45.204Z,17.00
2023-04-26T00:16:45.268Z,17.10
2023-04-26T00:17:45.194Z,16.90
2023-04-26T00:18:45.170Z,16.80
2023-04-26T00:19:45.168Z,16.40
2023-04-26T00:20:45.191Z,17.20
2023-04-26T00:21:45.104Z,16.40
2023-04-26T00:22:45.098Z,16.60
2023-04-26T00:23:45.080Z,16.30
2023-04-26T00:24:45.081Z,15.90
2023-04-26T00:25:45.055Z,16.60
2023-04-26T00:26:45.040Z,16.40
2023-04-26T00:27:45.122Z,16.90
2023-04-26T00:28:45.032Z,17.60
2023-04-26T00:29:45.004Z,17.00
2023-04-26T00:30:45.060Z,17.20
2023-04-26T00:31:45.123Z,17.90
2023-04-26T00:32:45.028Z,16.90
2023-04-26T00:33:44.965Z,18.50
2023-04-26T00:34:44.960Z,16.70
2023-04-26T00:35:44.943Z,16.90
2023-04-26T00:36:44.995Z,16.40
2023-04-26T00:37:44.906Z,15.20
2023-04-26T00:38:44.911Z,14.70
2023-04-26T00:39:44.893Z,14.80
2023-04-26T00:40:44.868Z,14.60
2023-04-26T00:41:44.875Z,15.00
2023-04-26T00:42:44.851Z,14.80
2023-04-26T00:43:44.927Z,14.90
2023-04-26T00:44:44.831Z,14.60
2023-04-26T00:45:44.836Z,14.50
2023-04-26T00:46:44.799Z,14.30
2023-04-26T00:47:44.858Z,15.00
2023-04-26T00:48:44.877Z,14.10
2023-04-26T00:49:44.760Z,13.90
2023-04-26T00:50:44.760Z,14.20
2023-04-26T00:51:44.716Z,13.80
2023-04-26T00:52:44.772Z,13.20
2023-04-26T00:53:44.692Z,13.30
2023-04-26T00:54:44.736Z,13.70
2023-04-26T00:55:44.843Z,13.70
2023-04-26T00:56:44.646Z,13.60
2023-04-26T00:57:44.659Z,13.40
2023-04-26T00:58:44.646Z,13.70
2023-04-26T00:59:44.658Z,14.40
2023-04-26T01:00:44.641Z,14.60
2023-04-26T01:01:44.662Z,15.00
2023-04-26T01:02:44.719Z,16.10
2023-04-26T01:03:44.827Z,15.80
2023-04-26T01:04:44.575Z,14.90
2023-04-26T01:05:44.546Z,15.40
2023-04-26T01:06:44.537Z,15.90
2023-04-26T01:07:44.522Z,15.30
2023-04-26T01:08:44.499Z,15.70
2023-04-26T01:09:44.505Z,15.60
2023-04-26T01:10:44.519Z,15.60
2023-04-26T01:11:44.506Z,14.90
2023-04-26T01:12:44.468Z,15.50
2023-04-26T01:13:44.465Z,15.80
2023-04-26T01:14:44.420Z,14.90
2023-04-26T01:15:44.432Z,15.40
2023-04-26T01:16:44.477Z,16.10
2023-04-26T01:17:44.419Z,15.60
2023-04-26T01:18:44.390Z,14.90
2023-04-26T01:19:44.367Z,16.10
2023-04-26T01:20:44.353Z,15.60
2023-04-26T01:21:44.364Z,15.50
2023-04-26T01:22:44.327Z,14.80
2023-04-26T01:23:44.303Z,15.90
2023-04-26T01:24:44.289Z,14.90
2023-04-26T01:25:44.292Z,15.30
2023-04-26T01:26:44.290Z,15.80
2023-04-26T01:27:44.293Z,15.70
2023-04-26T01:28:44.257Z,15.30
2023-04-26T01:29:44.232Z,15.40
2023-04-26T01:30:44.227Z,15.80
2023-04-26T01:31:44.220Z,15.90
2023-04-26T01:32:44.268Z,15.90
2023-04-26T01:33:44.226Z,15.80
2023-04-26T01:34:44.210Z,16.10
2023-04-26T01:35:44.156Z,15.10
2023-04-26T01:36:44.167Z,15.60
2023-04-26T01:37:44.150Z,15.70
2023-04-26T01:38:44.152Z,16.80
2023-04-26T01:39:44.109Z,16.50
2023-04-26T01:40:44.098Z,16.60
2023-04-26T01:41:44.087Z,16.20
2023-04-26T01:42:44.081Z,16.50
2023-04-26T01:43:44.063Z,16.40
2023-04-26T01:44:44.059Z,16.80
2023-04-26T01:45:44.030Z,16.20
2023-04-26T01:46:44.173Z,16.80
2023-04-26T01:47:44.033Z,16.10
2023-04-26T01:48:43.998Z,16.30
2023-04-26T01:49:43.990Z,17.20
2023-04-26T01:50:44.012Z,16.80
2023-04-26T01:51:43.967Z,17.00
2023-04-26T01:52:43.942Z,16.70
2023-04-26T01:53:43.934Z,16.30
2023-04-26T01:54:43.919Z,17.30
2023-04-26T01:55:43.911Z,16.30
2023-04-26T01:56:43.918Z,17.00
2023-04-26T01:57:43.887Z,16.30
2023-04-26T01:58:43.866Z,16.20
2023-04-26T01:59:43.849Z,17.00
2023-04-26T02:00:43.843Z,16.70
2023-04-26T02:01:43.892Z,16.20
2023-04-26T02:02:43.934Z,16.20
2023-04-26T02:03:43.866Z,15.80
2023-04-26T02:04:43.820Z,15.80
2023-04-26T02:05:43.791Z,16.20
2023-04-26T02:06:43.783Z,15.80
2023-04-26T02:07:43.796Z,16.10
2023-04-26T02:08:43.740Z,15.80
2023-04-26T02:09:43.723Z,16.10
2023-04-26T02:10:43.707Z,15.20
2023-04-26T02:11:43.734Z,15.60
2023-04-26T02:12:43.701Z,15.70
2023-04-26T02:13:43.664Z,16.30
2023-04-26T02:14:43.663Z,15.70
2023-04-26T02:15:43.658Z,15.10
2023-04-26T02:16:43.641Z,15.40
2023-04-26T02:17:43.653Z,15.50
2023-04-26T02:18:43.603Z,14.10
2023-04-26T02:19:43.598Z,14.30
2023-04-26T02:20:43.610Z,13.40
2023-04-26T02:21:43.567Z,13.80
2023-04-26T02:22:43.563Z,13.30
2023-04-26T02:23:43.649Z,13.30
2023-04-26T02:24:43.539Z,13.80
2023-04-26T02:25:43.524Z,13.40
2023-04-26T02:26:43.496Z,13.50
2023-04-26T02:27:43.498Z,14.70
2023-04-26T02:28:43.502Z,14.70
2023-04-26T02:29:44.755Z,14.80
2023-04-26T02:30:43.487Z,13.50
2023-04-26T02:31:43.513Z,13.90
2023-04-26T02:32:43.455Z,14.40
2023-04-26T02:33:43.438Z,13.30
2023-04-26T02:34:43.416Z,13.80
2023-04-26T02:35:43.398Z,13.80
2023-04-26T02:36:43.372Z,13.60
2023-04-26T02:37:43.363Z,15.50
2023-04-26T02:38:43.350Z,16.70
2023-04-26T02:39:43.362Z,15.40
2023-04-26T02:40:43.330Z,16.10
2023-04-26T02:41:43.309Z,16.60
2023-04-26T02:42:43.296Z,16.20
2023-04-26T02:43:43.293Z,15.60
2023-04-26T02:44:43.278Z,15.30
2023-04-26T02:45:43.294Z,16.50
2023-04-26T02:46:43.292Z,16.30
2023-04-26T02:47:43.251Z,15.80
2023-04-26T02:48:43.223Z,15.80
2023-04-26T02:49:43.211Z,15.60
2023-04-26T02:50:43.195Z,14.30
2023-04-26T02:51:43.202Z,13.80
2023-04-26T02:52:43.183Z,14.10
2023-04-26T02:53:43.164Z,13.70
2023-04-26T02:54:43.147Z,14.00
2023-04-26T02:55:43.139Z,14.40
2023-04-26T02:56:43.150Z,14.60
2023-04-26T02:57:43.128Z,15.00
2023-04-26T02:58:43.105Z,14.40
2023-04-26T02:59:43.083Z,14.30
2023-04-26T03:00:43.096Z,15.30
2023-04-26T03:01:43.069Z,15.60
2023-04-26T03:02:43.178Z,15.50
2023-04-26T03:03:43.120Z,15.80
2023-04-26T03:04:43.040Z,16.70
2023-04-26T03:05:43.012Z,17.70
2023-04-26T03:06:43.011Z,17.40
2023-04-26T03:07:42.984Z,16.50
2023-04-26T03:08:42.993Z,15.90
2023-04-26T03:09:42.973Z,15.90
2023-04-26T03:10:42.953Z,16.10
2023-04-26T03:11:42.927Z,16.90
2023-04-26T03:12:42.933Z,17.50
2023-04-26T03:13:42.911Z,16.50
2023-04-26T03:14:42.906Z,16.50
2023-04-26T03:15:42.929Z,16.20
2023-04-26T03:16:42.913Z,17.70
2023-04-26T03:17:42.858Z,16.60
2023-04-26T03:18:42.834Z,17.50
2023-04-26T03:19:42.833Z,17.20
2023-04-26T03:20:42.842Z,18.10
2023-04-26T03:21:42.811Z,17.50
2023-04-26T03:22:42.804Z,17.50
2023-04-26T03:23:42.795Z,17.90
2023-04-26T03:24:42.773Z,17.60
2023-04-26T03:25:42.762Z,18.30
2023-04-26T03:26:42.776Z,18.50
2023-04-26T03:27:42.730Z,17.60
2023-04-26T03:28:42.746Z,18.60
2023-04-26T03:29:44.117Z,17.60
2023-04-26T03:30:42.715Z,16.90
2023-04-26T03:31:42.735Z,21.70
2023-04-26T03:32:42.717Z,27.80
2023-04-26T03:33:42.679Z,30.20
2023-04-26T03:34:42.649Z,30.30
2023-04-26T03:35:42.645Z,26.10
2023-04-26T03:36:42.626Z,28.00
2023-04-26T03:37:42.609Z,25.70
2023-04-26T03:38:42.620Z,25.70
2023-04-26T03:39:42.585Z,25.90
2023-04-26T03:40:42.590Z,20.70
2023-04-26T03:41:42.559Z,19.80
2023-04-26T03:42:42.580Z,20.70
2023-04-26T03:43:42.539Z,20.40
2023-04-26T03:44:42.592Z,21.00
2023-04-26T03:45:42.566Z,23.40
2023-04-26T03:46:42.498Z,24.90
2023-04-26T03:47:42.499Z,26.90
2023-04-26T03:48:42.477Z,25.70
2023-04-26T03:49:42.459Z,24.90
2023-04-26T03:50:42.467Z,24.50
2023-04-26T03:51:42.452Z,22.10
2023-04-26T03:52:42.436Z,22.10
2023-04-26T03:53:42.432Z,22.00
2023-04-26T03:54:42.406Z,20.10
2023-04-26T03:55:42.392Z,19.70
2023-04-26T03:56:42.399Z,20.70
2023-04-26T03:57:42.355Z,21.40
2023-04-26T03:58:42.358Z,21.70
2023-04-26T03:59:42.336Z,20.90
2023-04-26T04:00:42.320Z,22.00
2023-04-26T04:01:42.343Z,21.50
2023-04-26T04:02:42.566Z,22.70
2023-04-26T04:03:42.622Z,22.30
2023-04-26T04:04:42.594Z,23.20
2023-04-26T04:05:42.347Z,23.70
2023-04-26T04:06:42.252Z,24.60
2023-04-26T04:07:42.261Z,30.20
2023-04-26T04:08:42.221Z,30.00
2023-04-26T04:09:42.228Z,37.00
2023-04-26T04:10:42.215Z,41.90
2023-04-26T04:11:42.208Z,47.40
2023-04-26T04:12:42.187Z,36.60
2023-04-26T04:13:42.193Z,35.10
2023-04-26T04:14:42.164Z,40.30
2023-04-26T04:15:42.137Z,44.80
2023-04-26T04:16:42.136Z,52.20
2023-04-26T04:17:42.110Z,53.10
2023-04-26T04:18:42.103Z,39.00
2023-04-26T04:19:42.109Z,41.90
2023-04-26T04:20:42.086Z,42.30
2023-04-26T04:21:42.121Z,38.20
2023-04-26T04:22:42.045Z,28.20
2023-04-26T04:23:42.035Z,30.00
2023-04-26T04:24:42.019Z,29.00
2023-04-26T04:25:42.026Z,27.30
2023-04-26T04:26:41.995Z,29.50
2023-04-26T04:27:41.982Z,41.30
2023-04-26T04:28:41.972Z,41.00
2023-04-26T04:29:41.971Z,37.70
2023-04-26T04:30:41.941Z,38.30
2023-04-26T04:31:42.098Z,36.00
2023-04-26T04:32:41.966Z,32.60
2023-04-26T04:33:41.915Z,33.80
2023-04-26T04:34:41.916Z,34.50
2023-04-26T04:35:41.894Z,33.70
2023-04-26T04:36:41.885Z,28.90
2023-04-26T04:37:41.888Z,39.30
2023-04-26T04:38:41.849Z,35.10
2023-04-26T04:39:41.842Z,34.00
2023-04-26T04:40:41.814Z,28.40
2023-04-26T04:41:41.814Z,27.10
2023-04-26T04:42:41.816Z,27.60
2023-04-26T04:43:41.803Z,27.40
2023-04-26T04:44:41.773Z,40.40
2023-04-26T04:45:41.766Z,48.00
2023-04-26T04:46:41.775Z,36.10
2023-04-26T04:47:41.806Z,26.30
2023-04-26T04:48:41.746Z,22.20
2023-04-26T04:49:41.719Z,21.90
2023-04-26T04:50:41.706Z,23.50
2023-04-26T04:51:41.698Z,28.50
2023-04-26T04:52:41.684Z,23.50
2023-04-26T04:53:41.649Z,24.50
2023-04-26T04:54:41.670Z,23.40
2023-04-26T04:55:41.634Z,22.60
2023-04-26T04:56:41.629Z,20.60
2023-04-26T04:57:42.894Z,21.00
2023-04-26T04:58:41.589Z,21.40
2023-04-26T04:59:41.583Z,20.40
2023-04-26T05:00:41.589Z,21.20
2023-04-26T05:01:41.567Z,21.90
2023-04-26T05:02:41.765Z,22.90
2023-04-26T05:03:41.623Z,23.60
2023-04-26T05:04:41.726Z,23.70
2023-04-26T05:05:41.534Z,23.00
2023-04-26T05:06:41.539Z,23.40
2023-04-26T05:07:41.492Z,23.80
2023-04-26T05:08:41.476Z,24.20
2023-04-26T05:09:41.466Z,21.80
2023-04-26T05:10:41.442Z,23.20
2023-04-26T05:11:41.438Z,21.80
2023-04-26T05:12:41.435Z,21.80
2023-04-26T05:13:41.407Z,21.20
2023-04-26T05:14:41.397Z,21.00
2023-04-26T05:15:41.377Z,21.50
2023-04-26T05:16:41.405Z,21.30
2023-04-26T05:17:41.406Z,23.00
2023-04-26T05:18:41.371Z,22.50
2023-04-26T05:19:41.369Z,21.50
2023-04-26T05:20:41.336Z,21.80
2023-04-26T05:21:41.327Z,20.10
2023-04-26T05:22:41.351Z,21.20
2023-04-26T05:23:41.289Z,19.70
2023-04-26T05:24:41.287Z,20.60
2023-04-26T05:25:41.256Z,19.50
2023-04-26T05:26:41.253Z,19.40
2023-04-26T05:27:41.242Z,19.40
2023-04-26T05:28:41.224Z,18.80
2023-04-26T05:29:41.209Z,18.60
2023-04-26T05:30:41.222Z,17.10
2023-04-26T05:31:41.219Z,16.00
2023-04-26T05:32:41.214Z,16.40
2023-04-26T05:33:41.171Z,16.40
2023-04-26T05:34:41.169Z,18.20
2023-04-26T05:35:41.154Z,17.40
2023-04-26T05:36:41.150Z,17.90
2023-04-26T05:37:41.116Z,17.10
2023-04-26T05:38:41.118Z,18.50
2023-04-26T05:39:41.105Z,17.90
2023-04-26T05:40:41.064Z,17.80
2023-04-26T05:41:41.148Z,17.50
2023-04-26T05:42:41.064Z,17.10
2023-04-26T05:43:41.037Z,16.80
2023-04-26T05:44:41.085Z,16.50
2023-04-26T05:45:41.036Z,16.10
2023-04-26T05:46:40.993Z,16.40
2023-04-26T05:47:41.016Z,16.70
2023-04-26T05:48:41.001Z,16.10
2023-04-26T05:49:40.977Z,16.90
2023-04-26T05:50:40.947Z,15.70
2023-04-26T05:51:40.932Z,16.50
2023-04-26T05:52:40.945Z,15.40
2023-04-26T05:53:40.979Z,16.00
2023-04-26T05:54:40.922Z,15.10
2023-04-26T05:55:40.868Z,15.70
2023-04-26T05:56:40.856Z,15.90
2023-04-26T05:57:40.902Z,16.10
2023-04-26T05:58:40.843Z,15.10
2023-04-26T05:59:40.841Z,16.00
2023-04-26T06:00:40.821Z,15.80
2023-04-26T06:01:40.793Z,15.30
2023-04-26T06:02:40.961Z,16.10
2023-04-26T06:03:40.944Z,15.50
2023-04-26T06:04:40.920Z,16.00
2023-04-26T06:05:40.884Z,16.10
2023-04-26T06:06:40.805Z,15.20
2023-04-26T06:07:40.727Z,15.60
2023-04-26T06:08:40.724Z,16.00
2023-04-26T06:09:40.693Z,15.50
2023-04-26T06:10:40.707Z,15.30
2023-04-26T06:11:40.664Z,14.70
2023-04-26T06:12:40.684Z,15.40
2023-04-26T06:13:40.665Z,14.70
2023-04-26T06:14:40.662Z,14.60
2023-04-26T06:15:40.619Z,14.20
2023-04-26T06:16:43.541Z,14.90
2023-04-26T06:17:40.603Z,14.20
2023-04-26T06:18:40.597Z,14.60
2023-04-26T06:19:40.562Z,13.90
2023-04-26T06:20:40.562Z,11.60
2023-04-26T06:21:40.544Z,12.10
2023-04-26T06:22:40.553Z,11.80
2023-04-26T06:23:40.522Z,11.30
2023-04-26T06:24:40.499Z,12.00
2023-04-26T06:25:40.489Z,11.40
2023-04-26T06:26:40.484Z,11.50
2023-04-26T06:27:40.470Z,11.50
2023-04-26T06:28:42.230Z,11.30
2023-04-26T06:29:40.444Z,11.00
2023-04-26T06:30:40.458Z,10.60
2023-04-26T06:31:40.576Z,11.00
2023-04-26T06:32:40.541Z,11.40
2023-04-26T06:33:40.410Z,10.50
2023-04-26T06:34:40.406Z,10.50
2023-04-26T06:35:40.390Z,10.50
2023-04-26T06:36:40.350Z,10.10
2023-04-26T06:37:40.337Z,9.90
2023-04-26T06:38:40.331Z,9.40
2023-04-26T06:39:40.362Z,9.70
2023-04-26T06:40:40.324Z,9.70
2023-04-26T06:41:40.280Z,9.90
2023-04-26T06:42:40.449Z,9.30
2023-04-26T06:43:40.314Z,9.30
2023-04-26T06:44:40.265Z,8.70
2023-04-26T06:45:41.512Z,8.60
2023-04-26T06:46:40.376Z,8.80
2023-04-26T06:47:40.241Z,8.80
2023-04-26T06:48:40.205Z,8.90
2023-04-26T06:49:40.196Z,9.20
2023-04-26T06:50:40.169Z,9.00
2023-04-26T06:51:40.175Z,10.30
2023-04-26T06:52:40.154Z,10.80
2023-04-26T06:53:40.133Z,10.40
2023-04-26T06:54:53.628Z,10.10
2023-04-26T06:55:40.133Z,10.90
2023-04-26T06:56:40.106Z,10.40
2023-04-26T06:57:40.113Z,10.20
2023-04-26T06:58:40.097Z,10.20
2023-04-26T06:59:40.076Z,10.30
2023-04-26T07:00:40.060Z,10.30
2023-04-26T07:01:40.093Z,9.20
2023-04-26T07:02:40.126Z,9.10
2023-04-26T07:03:40.418Z,9.10
2023-04-26T07:04:40.202Z,10.10
2023-04-26T07:05:40.275Z,10.50
2023-04-26T07:06:39.970Z,9.80
2023-04-26T07:07:39.968Z,8.80
2023-04-26T07:08:39.946Z,8.60
2023-04-26T07:09:39.956Z,8.10
2023-04-26T07:10:39.924Z,7.90
2023-04-26T07:11:39.903Z,7.90
2023-04-26T07:12:39.942Z,8.30
2023-04-26T07:13:39.919Z,8.30
2023-04-26T07:14:39.875Z,8.20
2023-04-26T07:15:39.875Z,8.00
2023-04-26T07:16:39.859Z,8.00
2023-04-26T07:17:39.871Z,8.50
2023-04-26T07:18:39.810Z,9.30
2023-04-26T07:19:39.808Z,8.80
2023-04-26T07:20:39.809Z,8.50
2023-04-26T07:21:39.784Z,8.90
2023-04-26T07:22:39.758Z,8.60
2023-04-26T07:23:39.750Z,8.30
2023-04-26T07:24:39.734Z,8.40
2023-04-26T07:25:39.730Z,9.10
2023-04-26T07:26:39.739Z,8.60
2023-04-26T07:27:39.696Z,8.30
2023-04-26T07:28:39.700Z,10.30
2023-04-26T07:29:39.678Z,9.10
2023-04-26T07:30:39.650Z,8.40
2023-04-26T07:31:39.678Z,7.70
2023-04-26T07:32:39.702Z,7.90
2023-04-26T07:33:39.695Z,8.50
2023-04-26T07:34:39.607Z,7.80
2023-04-26T07:35:39.598Z,8.10
2023-04-26T07:36:39.638Z,9.40
2023-04-26T07:37:39.601Z,8.70
2023-04-26T07:38:39.558Z,8.70
2023-04-26T07:39:39.560Z,8.90
2023-04-26T07:40:39.558Z,8.40
2023-04-26T07:41:41.087Z,8.20
2023-04-26T07:42:39.549Z,9.20
2023-04-26T07:43:39.537Z,8.90
2023-04-26T07:44:39.482Z,9.40
2023-04-26T07:45:39.497Z,9.30
2023-04-26T07:46:39.469Z,8.00
2023-04-26T07:47:39.482Z,7.80
2023-04-26T07:48:39.468Z,7.80
2023-04-26T07:49:39.409Z,9.10
2023-04-26T07:50:39.402Z,7.90
2023-04-26T07:51:39.393Z,7.70
2023-04-26T07:52:39.392Z,7.20
2023-04-26T07:53:39.375Z,7.30
2023-04-26T07:54:39.385Z,7.30
2023-04-26T07:55:39.361Z,7.40
2023-04-26T07:56:39.363Z,7.70
2023-04-26T07:57:39.353Z,7.50
2023-04-26T07:58:39.505Z,7.50
2023-04-26T07:59:39.278Z,7.70
2023-04-26T08:00:39.296Z,7.50
2023-04-26T08:01:39.326Z,8.40
2023-04-26T08:02:45.130Z,7.80
2023-04-26T08:03:39.412Z,7.20
2023-04-26T08:04:39.646Z,7.40
2023-04-26T08:05:39.590Z,7.40
2023-04-26T08:06:39.240Z,6.30
2023-04-26T08:07:39.186Z,6.40
2023-04-26T08:08:39.186Z,6.30
2023-04-26T08:09:39.173Z,6.30
2023-04-26T08:10:39.184Z,6.20
2023-04-26T08:11:39.195Z,6.00
2023-04-26T08:12:39.198Z,6.20
2023-04-26T08:13:40.060Z,5.70
2023-04-26T08:14:39.099Z,5.50
2023-04-26T08:15:39.123Z,6.20
2023-04-26T08:16:39.111Z,6.00
2023-04-26T08:17:39.234Z,6.30
2023-04-26T08:18:39.047Z,6.60
2023-04-26T08:19:39.039Z,6.20
2023-04-26T08:20:39.026Z,6.10
2023-04-26T08:21:39.003Z,6.40
2023-04-26T08:22:39.019Z,6.60
2023-04-26T08:23:39.004Z,6.70
2023-04-26T08:24:38.997Z,6.90
2023-04-26T08:25:38.956Z,7.60
2023-04-26T08:26:39.003Z,7.10
2023-04-26T08:27:38.936Z,7.50
2023-04-26T08:28:38.917Z,7.30
2023-04-26T08:29:38.940Z,7.50
2023-04-26T08:30:38.918Z,6.90
2023-04-26T08:31:38.934Z,7.00
2023-04-26T08:32:38.892Z,7.20
2023-04-26T08:33:38.923Z,8.10
2023-04-26T08:34:38.891Z,7.70
2023-04-26T08:35:38.827Z,7.50
2023-04-26T08:36:38.839Z,9.20
2023-04-26T08:37:38.813Z,9.80
2023-04-26T08:38:38.801Z,7.50
2023-04-26T08:39:38.791Z,7.30
2023-04-26T08:40:38.795Z,7.20
2023-04-26T08:41:38.762Z,7.10
2023-04-26T08:42:38.759Z,7.00
2023-04-26T08:43:38.741Z,6.40
2023-04-26T08:44:38.752Z,6.90
2023-04-26T08:45:38.708Z,6.40
2023-04-26T08:46:38.751Z,5.50
2023-04-26T08:47:38.717Z,5.40
2023-04-26T08:48:38.695Z,5.60
2023-04-26T08:49:38.678Z,5.70
2023-04-26T08:50:38.696Z,5.00
2023-04-26T08:51:38.670Z,5.20
2023-04-26T08:52:38.627Z,4.90
2023-04-26T08:53:38.639Z,5.10
2023-04-26T08:54:38.611Z,4.70
2023-04-26T08:55:38.643Z,5.00
2023-04-26T08:56:38.616Z,5.00
2023-04-26T08:57:38.567Z,5.10
2023-04-26T08:58:38.583Z,5.10
2023-04-26T08:59:38.563Z,5.30
2023-04-26T09:00:38.578Z,5.40
2023-04-26T09:01:38.607Z,5.70
2023-04-26T09:02:38.611Z,5.60
2023-04-26T09:03:38.608Z,5.80
2023-04-26T09:04:38.816Z,5.60
2023-04-26T09:05:38.465Z,5.60
2023-04-26T09:06:38.477Z,5.60
2023-04-26T09:07:38.450Z,5.40
2023-04-26T09:08:38.456Z,5.60
2023-04-26T09:09:38.437Z,6.00
2023-04-26T09:10:38.404Z,6.40
2023-04-26T09:11:38.379Z,6.00
2023-04-26T09:12:38.382Z,6.00
2023-04-26T09:13:38.386Z,6.30
2023-04-26T09:14:38.358Z,5.70
2023-04-26T09:15:38.448Z,5.80
2023-04-26T09:16:38.362Z,5.40
2023-04-26T09:17:38.366Z,5.50
2023-04-26T09:18:38.298Z,5.60
2023-04-26T09:19:38.321Z,5.80
2023-04-26T09:20:38.271Z,5.40
2023-04-26T09:21:38.267Z,5.10
2023-04-26T09:22:38.246Z,4.60
2023-04-26T09:23:38.266Z,4.50
2023-04-26T09:24:38.224Z,4.60
2023-04-26T09:25:38.264Z,5.00
2023-04-26T09:26:38.208Z,4.70
2023-04-26T09:27:38.218Z,5.20
2023-04-26T09:28:38.176Z,5.40
2023-04-26T09:29:38.180Z,5.30
2023-04-26T09:30:38.179Z,5.30
2023-04-26T09:31:38.192Z,6.80
2023-04-26T09:32:38.146Z,5.40
2023-04-26T09:33:38.154Z,5.30
2023-04-26T09:34:38.098Z,4.90
2023-04-26T09:35:38.104Z,5.10
2023-04-26T09:36:38.100Z,5.30
2023-04-26T09:37:47.311Z,4.90
2023-04-26T09:38:38.053Z,4.60
2023-04-26T09:39:38.068Z,4.90
2023-04-26T09:40:38.042Z,4.60
2023-04-26T09:41:38.040Z,4.40
2023-04-26T09:42:38.015Z,4.40
2023-04-26T09:43:37.998Z,5.60
2023-04-26T09:44:37.970Z,5.50
2023-04-26T09:45:37.973Z,5.10
2023-04-26T09:46:37.999Z,4.70
2023-04-26T09:47:38.068Z,4.30
2023-04-26T09:48:37.934Z,4.30
2023-04-26T09:49:37.922Z,4.70
2023-04-26T09:50:37.909Z,5.00
2023-04-26T09:51:37.942Z,4.80
2023-04-26T09:52:37.891Z,4.80
2023-04-26T09:53:37.930Z,5.40
2023-04-26T09:54:37.909Z,4.60
2023-04-26T09:55:37.866Z,4.60
2023-04-26T09:56:37.872Z,4.70
2023-04-26T09:57:37.850Z,4.00
2023-04-26T09:58:37.902Z,3.80
2023-04-26T09:59:37.846Z,4.20
2023-04-26T10:00:37.941Z,4.10
2023-04-26T10:01:38.052Z,3.20
2023-04-26T10:02:37.805Z,3.40
2023-04-26T10:03:38.031Z,3.60
2023-04-26T10:04:37.834Z,3.30
2023-04-26T10:05:37.770Z,3.60
2023-04-26T10:06:37.772Z,3.50
2023-04-26T10:07:37.736Z,3.50
2023-04-26T10:08:37.727Z,3.10
2023-04-26T10:09:37.728Z,3.00
2023-04-26T10:10:37.736Z,2.80
2023-04-26T10:11:38.929Z,2.70
2023-04-26T10:12:37.687Z,3.00
2023-04-26T10:13:37.670Z,2.70
2023-04-26T10:14:37.659Z,2.80
2023-04-26T10:15:37.675Z,3.00
2023-04-26T10:16:37.659Z,3.10
2023-04-26T10:17:37.744Z,2.90
2023-04-26T10:18:37.618Z,3.40
2023-04-26T10:19:37.613Z,2.70
2023-04-26T10:20:37.580Z,2.80
2023-04-26T10:21:37.585Z,3.00
2023-04-26T10:22:37.585Z,3.30
2023-04-26T10:23:37.559Z,3.00
2023-04-26T10:24:37.562Z,4.00
2023-04-26T10:25:37.524Z,3.10
2023-04-26T10:26:37.528Z,3.00
2023-04-26T10:27:37.521Z,3.30
2023-04-26T10:28:37.610Z,3.30
2023-04-26T10:29:37.498Z,3.40
2023-04-26T10:30:37.525Z,3.40
2023-04-26T10:31:37.622Z,4.30
2023-04-26T10:32:37.474Z,4.40
2023-04-26T10:33:37.529Z,4.00
2023-04-26T10:34:37.442Z,3.90
2023-04-26T10:35:37.427Z,3.50
2023-04-26T10:36:37.458Z,3.50
2023-04-26T10:37:37.416Z,3.80
2023-04-26T10:38:37.402Z,3.50
2023-04-26T10:39:37.410Z,3.50
2023-04-26T10:40:37.381Z,3.40
2023-04-26T10:41:37.354Z,3.40
2023-04-26T10:42:38.123Z,3.20
2023-04-26T10:43:37.353Z,3.10
2023-04-26T10:44:37.314Z,3.50
2023-04-26T10:45:37.420Z,3.20
2023-04-26T10:46:37.357Z,3.00
2023-04-26T10:47:37.498Z,3.50
2023-04-26T10:48:37.272Z,3.40
2023-04-26T10:49:37.264Z,2.90
2023-04-26T10:50:37.244Z,3.00
2023-04-26T10:51:37.243Z,3.10
2023-04-26T10:52:37.218Z,3.20
2023-04-26T10:53:37.206Z,3.20
2023-04-26T10:54:37.221Z,3.10
2023-04-26T10:55:37.209Z,3.30
2023-04-26T10:56:37.184Z,3.50
2023-04-26T10:57:37.171Z,3.20
2023-04-26T10:58:37.142Z,3.20
2023-04-26T10:59:51.406Z,3.40
2023-04-26T11:00:37.151Z,3.20
2023-04-26T11:01:37.152Z,3.40
2023-04-26T11:02:37.236Z,3.40
2023-04-26T11:03:37.351Z,3.40
2023-04-26T11:04:37.117Z,3.40
2023-04-26T11:05:37.065Z,3.30
2023-04-26T11:06:37.065Z,4.10
2023-04-26T11:07:37.072Z,4.20
2023-04-26T11:08:37.036Z,4.40
2023-04-26T11:09:37.136Z,4.60
2023-04-26T11:10:37.030Z,4.10
2023-04-26T11:11:36.978Z,3.90
2023-04-26T11:12:36.969Z,3.60
2023-04-26T11:13:36.971Z,3.20
2023-04-26T11:14:36.955Z,2.80
2023-04-26T11:15:36.984Z,2.70
2023-04-26T11:16:37.046Z,2.80
2023-04-26T11:17:36.964Z,2.80
2023-04-26T11:18:36.899Z,3.00
2023-04-26T11:19:36.921Z,2.70
2023-04-26T11:20:36.874Z,3.60
2023-04-26T11:21:36.884Z,4.50
2023-04-26T11:22:36.873Z,3.40
2023-04-26T11:23:36.842Z,2.90
2023-04-26T11:24:36.944Z,3.70
2023-04-26T11:25:36.817Z,4.00
2023-04-26T11:26:36.819Z,4.00
2023-04-26T11:27:36.827Z,3.70
2023-04-26T11:28:36.767Z,3.80
2023-04-26T11:29:36.820Z,3.60
2023-04-26T11:30:36.873Z,3.20
2023-04-26T11:31:36.808Z,3.90
2023-04-26T11:32:36.844Z,3.60
2023-04-26T11:33:36.965Z,3.50
2023-04-26T11:34:36.741Z,3.30
2023-04-26T11:35:36.803Z,3.80
2023-04-26T11:36:36.716Z,3.30
2023-04-26T11:37:37.504Z,3.20
2023-04-26T11:38:36.700Z,3.30
2023-04-26T11:39:36.693Z,3.60
2023-04-26T11:40:36.677Z,2.20
2023-04-26T11:41:36.663Z,2.20
2023-04-26T11:42:36.648Z,2.10
2023-04-26T11:43:36.808Z,4.50
2023-04-26T11:44:36.611Z,2.50
2023-04-26T11:45:36.622Z,2.60
2023-04-26T11:46:36.627Z,2.80
2023-04-26T11:47:36.636Z,2.20
2023-04-26T11:48:36.574Z,2.50
2023-04-26T11:49:36.558Z,2.00
2023-04-26T11:50:36.547Z,2.30
2023-04-26T11:51:36.551Z,2.20
2023-04-26T11:52:36.514Z,2.50
2023-04-26T11:53:36.503Z,3.20
2023-04-26T11:54:36.520Z,3.40
2023-04-26T11:55:36.474Z,3.40
2023-04-26T11:56:36.518Z,2.60
2023-04-26T11:57:36.491Z,2.90
2023-04-26T11:58:36.599Z,3.30
2023-04-26T11:59:36.464Z,2.90
2023-04-26T12:00:36.446Z,2.70
2023-04-26T12:01:36.482Z,3.20
2023-04-26T12:02:36.569Z,1.90
2023-04-26T12:03:36.553Z,1.70
2023-04-26T12:04:36.489Z,1.60
2023-04-26T12:05:36.629Z,1.70
2023-04-26T12:06:36.364Z,2.30
2023-04-26T12:07:36.382Z,2.80
2023-04-26T12:08:36.366Z,1.90
2023-04-26T12:09:36.346Z,3.60
2023-04-26T12:10:36.318Z,1.90
2023-04-26T12:11:36.302Z,2.60
2023-04-26T12:12:36.315Z,2.30
2023-04-26T12:13:36.292Z,2.00
2023-04-26T12:14:36.325Z,1.80
2023-04-26T12:15:36.261Z,2.30
2023-04-26T12:16:36.265Z,2.00
2023-04-26T12:17:36.360Z,2.00
2023-04-26T12:18:36.232Z,1.80
2023-04-26T12:19:36.234Z,2.30
2023-04-26T12:20:36.239Z,1.90
2023-04-26T12:21:36.193Z,4.00
2023-04-26T12:22:36.174Z,2.90
2023-04-26T12:23:36.168Z,2.00
2023-04-26T12:24:36.186Z,1.80
2023-04-26T12:25:36.186Z,2.00
2023-04-26T12:26:36.153Z,1.90
2023-04-26T12:27:36.139Z,2.10
2023-04-26T12:28:36.107Z,2.10
2023-04-26T12:29:36.103Z,1.90
2023-04-26T12:30:36.107Z,1.90
2023-04-26T12:31:36.132Z,1.80
2023-04-26T12:32:36.094Z,1.80
2023-04-26T12:33:36.144Z,1.90
2023-04-26T12:34:36.062Z,1.70
2023-04-26T12:35:36.083Z,1.80
2023-04-26T12:36:36.098Z,1.70
2023-04-26T12:37:36.023Z,2.00
2023-04-26T12:38:36.032Z,1.80
2023-04-26T12:39:35.973Z,1.70
2023-04-26T12:40:35.970Z,1.70
2023-04-26T12:41:35.978Z,1.80
2023-04-26T12:42:35.957Z,1.80
2023-04-26T12:43:35.939Z,1.70
2023-04-26T12:44:35.919Z,1.90
2023-04-26T12:45:35.900Z,1.60
2023-04-26T12:46:35.993Z,1.90
2023-04-26T12:47:35.939Z,2.00
2023-04-26T12:48:35.855Z,1.80
2023-04-26T12:49:35.859Z,1.70
2023-04-26T12:50:35.841Z,1.80
2023-04-26T12:51:35.831Z,2.00
2023-04-26T12:52:35.815Z,1.90
2023-04-26T12:53:35.823Z,2.00
2023-04-26T12:54:35.807Z,2.20
2023-04-26T12:55:35.782Z,2.00
2023-04-26T12:56:35.757Z,1.90
2023-04-26T12:57:35.744Z,2.30
2023-04-26T12:58:35.737Z,2.20
2023-04-26T12:59:35.749Z,2.00
2023-04-26T13:00:35.707Z,2.20
2023-04-26T13:01:35.753Z,1.90
2023-04-26T13:02:35.865Z,2.10
2023-04-26T13:03:35.804Z,2.10
2023-04-26T13:04:39.192Z,1.90